createdAt,value
2024-01-29T00:01:07.465Z,14.88
2024-01-29T00:03:34.870Z,13.10
2024-01-29T00:06:02.341Z,14.68
2024-01-29T00:08:29.835Z,12.90
2024-01-29T00:10:57.099Z,12.43
2024-01-29T00:13:25.003Z,11.77
2024-01-29T00:15:52.217Z,13.20
2024-01-29T00:18:19.481Z,13.13
2024-01-29T00:20:46.741Z,12.80
2024-01-29T00:23:13.897Z,13.63
2024-01-29T00:25:44.660Z,13.20
2024-01-29T00:28:12.197Z,14.63
2024-01-29T00:30:39.418Z,15.77
2024-01-29T00:33:06.672Z,13.32
2024-01-29T00:35:33.884Z,12.00
2024-01-29T00:38:00.982Z,8.40
2024-01-29T00:40:29.210Z,12.25
2024-01-29T00:42:56.455Z,15.05
2024-01-29T00:45:23.909Z,11.43
2024-01-29T00:47:51.147Z,10.55
2024-01-29T00:50:18.681Z,10.95
2024-01-29T00:52:45.789Z,10.50
2024-01-29T00:55:13.793Z,13.43
2024-01-29T00:57:41.255Z,10.18
2024-01-29T01:00:09.841Z,11.15
2024-01-29T01:02:37.062Z,7.78
2024-01-29T01:05:05.314Z,10.02
2024-01-29T01:07:32.694Z,17.25
2024-01-29T01:09:59.885Z,12.75
2024-01-29T01:12:27.092Z,12.18
2024-01-29T01:14:55.616Z,9.98
2024-01-29T01:17:22.770Z,12.88
2024-01-29T01:19:50.090Z,10.55
2024-01-29T01:22:17.407Z,8.93
2024-01-29T01:24:47.822Z,11.85
2024-01-29T01:32:13.396Z,12.93
2024-01-29T01:34:40.679Z,10.32
2024-01-29T01:37:07.831Z,11.20
2024-01-29T01:39:34.936Z,12.52
2024-01-29T01:42:05.736Z,13.07
2024-01-29T01:44:32.984Z,11.88
2024-01-29T01:47:00.918Z,10.70
2024-01-29T01:49:32.095Z,11.20
2024-01-29T01:52:02.752Z,10.82
2024-01-29T01:54:30.055Z,10.73
2024-01-29T01:56:58.371Z,13.40
2024-01-29T01:59:25.543Z,11.40
2024-01-29T02:01:53.845Z,13.95
2024-01-29T02:04:21.190Z,12.35
2024-01-29T02:06:48.760Z,11.18
2024-01-29T02:09:15.900Z,12.13
2024-01-29T02:11:43.000Z,11.80
2024-01-29T02:14:11.666Z,12.38
2024-01-29T02:16:38.830Z,15.55
2024-01-29T02:19:11.230Z,13.45
2024-01-29T02:21:38.862Z,13.23
2024-01-29T02:24:06.045Z,15.70
2024-01-29T02:26:33.103Z,13.43
2024-01-29T02:29:00.235Z,13.15
2024-01-29T02:31:27.872Z,15.50
2024-01-29T02:33:55.077Z,18.80
2024-01-29T02:36:22.364Z,17.38
2024-01-29T02:38:49.754Z,14.45
2024-01-29T02:41:16.903Z,14.85
2024-01-29T02:43:44.333Z,13.73
2024-01-29T02:46:11.432Z,17.33
2024-01-29T02:48:39.332Z,19.15
2024-01-29T02:51:07.442Z,18.63
2024-01-29T02:53:34.654Z,13.75
2024-01-29T02:56:01.785Z,12.68
2024-01-29T02:58:33.118Z,14.48
2024-01-29T03:01:00.301Z,14.88
2024-01-29T03:03:27.823Z,14.82
2024-01-29T03:05:55.067Z,14.20
2024-01-29T03:08:22.384Z,13.50
2024-01-29T03:10:49.528Z,16.35
2024-01-29T03:13:16.661Z,17.77
2024-01-29T03:15:46.367Z,15.13
2024-01-29T03:18:16.426Z,19.65
2024-01-29T03:20:43.785Z,21.42
2024-01-29T03:23:11.750Z,18.70
2024-01-29T03:25:38.945Z,15.60
2024-01-29T03:28:06.717Z,15.05
2024-01-29T03:30:33.818Z,17.88
2024-01-29T03:33:01.191Z,16.55
2024-01-29T03:35:28.823Z,18.63
2024-01-29T03:37:55.927Z,16.30
2024-01-29T03:40:24.565Z,16.63
2024-01-29T03:42:51.720Z,18.13
2024-01-29T03:45:18.891Z,16.73
2024-01-29T03:47:45.977Z,15.38
2024-01-29T03:50:13.257Z,17.38
2024-01-29T03:52:40.457Z,18.40
2024-01-29T03:55:08.038Z,15.32
2024-01-29T03:57:36.611Z,20.13
2024-01-29T04:00:04.255Z,17.60
2024-01-29T04:02:38.592Z,21.63
2024-01-29T04:05:06.364Z,18.80
2024-01-29T04:07:33.891Z,21.58
2024-01-29T04:10:01.140Z,23.95
2024-01-29T04:12:29.264Z,22.30
2024-01-29T04:14:56.446Z,20.70
2024-01-29T04:17:23.617Z,21.02
2024-01-29T04:19:51.106Z,22.38
2024-01-29T04:22:18.471Z,21.67
2024-01-29T04:24:45.648Z,19.70
2024-01-29T04:27:12.779Z,21.60
2024-01-29T04:29:39.955Z,20.75
2024-01-29T04:32:07.506Z,18.50
2024-01-29T04:34:34.794Z,21.08
2024-01-29T04:37:02.016Z,20.77
2024-01-29T04:39:29.948Z,25.02
2024-01-29T04:41:59.176Z,20.02
2024-01-29T04:44:26.472Z,19.70
2024-01-29T04:46:53.535Z,22.95
2024-01-29T04:49:20.785Z,22.38
2024-01-29T04:51:48.006Z,18.60
2024-01-29T04:54:15.121Z,22.20
2024-01-29T04:56:42.251Z,19.25
2024-01-29T04:59:09.350Z,22.88
2024-01-29T05:01:36.543Z,20.15
2024-01-29T05:04:03.894Z,27.85
2024-01-29T05:06:31.553Z,17.77
2024-01-29T05:09:02.219Z,23.63
2024-01-29T05:11:30.587Z,21.10
2024-01-29T05:13:58.020Z,26.23
2024-01-29T05:16:25.191Z,21.05
2024-01-29T05:18:52.406Z,22.20
2024-01-29T05:21:19.541Z,20.98
2024-01-29T05:23:46.603Z,20.38
2024-01-29T05:26:13.763Z,23.00
2024-01-29T05:28:43.257Z,21.40
2024-01-29T05:31:10.488Z,29.02
2024-01-29T05:33:37.867Z,21.33
2024-01-29T05:36:05.365Z,23.85
2024-01-29T05:38:36.666Z,22.05
2024-01-29T05:41:04.000Z,20.73
2024-01-29T05:43:31.102Z,25.83
2024-01-29T05:45:58.604Z,20.30
2024-01-29T05:48:25.985Z,23.27
2024-01-29T05:50:56.271Z,23.90
2024-01-29T05:53:24.812Z,25.85
2024-01-29T05:55:51.938Z,26.83
2024-01-29T05:58:19.223Z,25.73
2024-01-29T06:00:46.713Z,25.67
2024-01-29T06:03:14.296Z,27.38
2024-01-29T06:05:41.567Z,30.00
2024-01-29T06:08:08.910Z,25.58
2024-01-29T06:10:36.687Z,27.00
2024-01-29T06:13:04.021Z,28.80
2024-01-29T06:15:31.260Z,28.65
2024-01-29T06:18:01.143Z,29.85
2024-01-29T06:20:31.512Z,23.48
2024-01-29T06:25:29.067Z,24.77
2024-01-29T06:27:56.321Z,25.95
2024-01-29T06:30:23.618Z,30.13
2024-01-29T06:32:50.976Z,26.52
2024-01-29T06:35:20.020Z,28.42
2024-01-29T06:37:47.193Z,25.80
2024-01-29T06:40:14.620Z,29.38
2024-01-29T06:42:41.968Z,24.65
2024-01-29T06:45:09.652Z,24.67
2024-01-29T06:47:36.895Z,27.85
2024-01-29T06:50:04.509Z,27.77
2024-01-29T06:52:31.760Z,30.10
2024-01-29T06:55:02.809Z,29.00
2024-01-29T06:57:30.108Z,26.45
2024-01-29T06:59:59.619Z,28.50
2024-01-29T07:02:26.832Z,24.27
2024-01-29T07:04:55.603Z,27.20
2024-01-29T07:07:22.998Z,24.17
2024-01-29T07:09:54.782Z,24.75
2024-01-29T07:12:22.209Z,23.58
2024-01-29T07:14:50.479Z,30.25
2024-01-29T07:17:17.710Z,27.80
2024-01-29T07:19:46.691Z,27.25
2024-01-29T07:22:19.778Z,24.80
2024-01-29T07:24:47.513Z,28.23
2024-01-29T07:27:14.916Z,26.55
2024-01-29T07:29:42.102Z,26.42
2024-01-29T07:32:09.309Z,23.73
2024-01-29T07:34:37.920Z,25.15
2024-01-29T07:37:05.669Z,24.45
2024-01-29T07:39:33.656Z,25.30
2024-01-29T07:42:00.869Z,27.25
2024-01-29T07:44:29.651Z,28.17
2024-01-29T07:46:56.857Z,26.05
2024-01-29T07:49:25.193Z,28.65
2024-01-29T07:51:52.495Z,26.50
2024-01-29T07:54:19.685Z,22.85
2024-01-29T07:56:46.782Z,25.88
2024-01-29T07:59:13.942Z,21.67
2024-01-29T08:01:41.330Z,24.58
2024-01-29T08:04:41.736Z,22.33
2024-01-29T08:07:09.140Z,26.98
2024-01-29T08:09:49.507Z,22.60
2024-01-29T08:12:29.108Z,22.05
2024-01-29T08:18:17.738Z,21.65
2024-01-29T08:20:45.674Z,20.58
2024-01-29T08:23:13.050Z,23.10
2024-01-29T08:25:40.224Z,22.35
2024-01-29T08:28:20.828Z,26.67
2024-01-29T08:30:51.094Z,19.88
2024-01-29T08:33:18.693Z,19.90
2024-01-29T08:39:12.812Z,18.88
2024-01-29T08:41:43.198Z,18.25
2024-01-29T08:44:11.167Z,20.67
2024-01-29T08:46:38.459Z,20.08
2024-01-29T08:49:05.758Z,23.48
2024-01-29T08:51:36.651Z,20.50
2024-01-29T08:54:03.946Z,21.50
2024-01-29T08:56:34.220Z,17.48
2024-01-29T08:59:03.992Z,16.67
2024-01-29T09:01:33.725Z,21.60
2024-01-29T09:04:00.979Z,21.38
2024-01-29T09:06:31.250Z,18.85
2024-01-29T09:09:01.168Z,17.48
2024-01-29T09:11:28.702Z,19.73
2024-01-29T09:13:55.802Z,19.05
2024-01-29T09:16:22.927Z,17.38
2024-01-29T09:18:50.378Z,21.13
2024-01-29T09:21:17.566Z,17.13
2024-01-29T09:23:44.696Z,16.40
2024-01-29T09:26:12.128Z,17.75
2024-01-29T09:28:43.488Z,17.95
2024-01-29T09:31:11.207Z,17.35
2024-01-29T09:33:38.778Z,16.85
2024-01-29T09:36:06.360Z,15.80
2024-01-29T09:38:33.496Z,13.77
2024-01-29T09:41:00.695Z,17.23
2024-01-29T09:43:28.936Z,13.40
2024-01-29T09:45:56.290Z,13.48
2024-01-29T09:48:23.599Z,14.93
2024-01-29T09:50:50.880Z,13.00
2024-01-29T09:53:22.307Z,14.82
2024-01-29T09:55:49.740Z,13.13
2024-01-29T09:58:17.494Z,12.00
2024-01-29T10:00:44.685Z,13.00
2024-01-29T10:03:22.964Z,13.27
2024-01-29T10:05:50.475Z,13.32
2024-01-29T10:08:17.762Z,12.27
2024-01-29T10:10:44.865Z,17.00
2024-01-29T10:13:12.014Z,14.43
2024-01-29T10:15:39.521Z,11.82
2024-01-29T10:18:11.118Z,15.85
2024-01-29T10:20:38.641Z,12.70
2024-01-29T10:23:05.774Z,13.90
2024-01-29T10:25:35.664Z,12.40
2024-01-29T10:28:15.381Z,11.70
2024-01-29T10:30:42.751Z,13.30
2024-01-29T10:33:10.450Z,16.30
2024-01-29T10:35:38.404Z,12.15
2024-01-29T10:38:06.566Z,12.52
2024-01-29T10:40:34.480Z,13.63
2024-01-29T10:43:02.717Z,14.60
2024-01-29T10:45:30.150Z,12.40
2024-01-29T10:48:11.568Z,12.60
2024-01-29T10:50:39.100Z,12.70
2024-01-29T10:53:06.308Z,15.27
2024-01-29T10:55:33.410Z,12.25
2024-01-29T10:58:02.815Z,14.55
2024-01-29T11:00:30.422Z,9.43
2024-01-29T11:02:57.926Z,9.85
2024-01-29T11:05:25.573Z,10.18
2024-01-29T11:07:56.305Z,11.57
2024-01-29T11:10:28.237Z,10.63
2024-01-29T11:12:56.150Z,12.43
2024-01-29T11:15:23.517Z,13.43
2024-01-29T11:17:50.785Z,12.57
2024-01-29T11:20:19.333Z,14.25
2024-01-29T11:23:21.704Z,13.45
2024-01-29T11:26:18.584Z,16.73
2024-01-29T11:28:48.293Z,15.98
2024-01-29T11:31:15.838Z,13.35
2024-01-29T11:33:45.097Z,10.45
2024-01-29T11:36:15.817Z,18.42
2024-01-29T11:38:43.079Z,16.15
2024-01-29T11:41:13.911Z,16.23
2024-01-29T11:43:43.741Z,22.50
2024-01-29T11:46:13.101Z,13.93
2024-01-29T11:48:40.556Z,9.75
2024-01-29T11:51:07.866Z,11.95
2024-01-29T11:53:36.035Z,12.30
2024-01-29T11:56:03.437Z,11.88
2024-01-29T11:58:30.792Z,18.17
2024-01-29T12:01:08.340Z,16.50
2024-01-29T12:03:43.857Z,16.95
2024-01-29T12:06:16.945Z,24.23
2024-01-29T12:08:50.758Z,23.20
2024-01-29T12:11:25.467Z,20.77
2024-01-29T12:13:59.839Z,21.55
2024-01-29T12:16:27.058Z,17.25
2024-01-29T12:26:38.773Z,9.95
2024-01-29T12:29:46.870Z,10.85
2024-01-29T12:32:21.863Z,9.82
2024-01-29T12:34:51.563Z,8.48
2024-01-29T12:37:23.457Z,9.73
2024-01-29T12:40:00.544Z,10.35
2024-01-29T12:42:28.271Z,12.43
2024-01-29T12:44:56.655Z,12.57
2024-01-29T12:47:28.109Z,10.95
2024-01-29T12:50:13.518Z,10.98
2024-01-29T12:52:44.684Z,8.13
2024-01-29T12:55:43.835Z,8.77
2024-01-29T12:58:11.841Z,9.60
2024-01-29T13:00:45.060Z,10.35
2024-01-29T13:03:15.877Z,10.02
2024-01-29T13:06:16.484Z,9.32
2024-01-29T13:15:06.059Z,8.02
2024-01-29T13:18:07.556Z,9.90
2024-01-29T13:23:17.879Z,7.90
2024-01-29T13:25:46.082Z,8.43
2024-01-29T13:28:13.818Z,11.40
2024-01-29T13:30:44.929Z,9.43
2024-01-29T13:33:15.752Z,5.90
2024-01-29T13:35:52.502Z,7.97
2024-01-29T13:38:22.632Z,11.25
2024-01-29T13:40:50.220Z,11.75
2024-01-29T13:43:21.245Z,8.55
2024-01-29T13:45:52.037Z,8.13
2024-01-29T13:48:19.905Z,10.43
2024-01-29T13:50:47.158Z,9.18
2024-01-29T13:53:14.361Z,9.18
2024-01-29T13:55:41.551Z,11.45
2024-01-29T13:58:08.887Z,12.68
2024-01-29T14:00:38.866Z,11.63
2024-01-29T14:03:06.264Z,8.18
2024-01-29T14:05:33.600Z,8.73
2024-01-29T14:08:00.763Z,10.93
2024-01-29T14:10:30.573Z,13.52
2024-01-29T14:13:00.246Z,10.55
2024-01-29T14:15:28.014Z,9.98
2024-01-29T14:17:55.336Z,10.50
2024-01-29T14:20:22.774Z,12.35
2024-01-29T14:22:56.945Z,13.27
2024-01-29T14:25:25.347Z,9.00
2024-01-29T14:27:53.568Z,10.45
2024-01-29T14:30:23.423Z,14.15
2024-01-29T14:32:53.761Z,14.05
2024-01-29T14:37:49.217Z,10.95
2024-01-29T14:40:17.481Z,13.18
2024-01-29T14:42:44.711Z,11.95
2024-01-29T14:45:12.010Z,12.07
2024-01-29T14:47:39.457Z,9.82
2024-01-29T14:50:07.049Z,12.88
2024-01-29T14:52:34.263Z,11.23
2024-01-29T14:55:01.571Z,11.77
2024-01-29T14:57:31.558Z,13.68
2024-01-29T15:00:02.823Z,11.00
2024-01-29T15:02:30.396Z,13.52
2024-01-29T15:05:00.390Z,14.70
2024-01-29T15:07:30.190Z,11.25
2024-01-29T15:09:59.793Z,18.10
2024-01-29T15:12:31.508Z,13.50
2024-01-29T15:15:01.345Z,15.82
2024-01-29T15:17:31.607Z,14.20
2024-01-29T15:19:59.623Z,16.48
2024-01-29T15:22:26.994Z,12.93
2024-01-29T15:24:55.574Z,13.40
2024-01-29T15:27:22.737Z,14.25
2024-01-29T15:29:49.912Z,15.48
2024-01-29T15:32:16.990Z,11.50
2024-01-29T15:34:48.921Z,14.07
2024-01-29T15:37:17.128Z,12.10
2024-01-29T15:39:44.390Z,18.35
2024-01-29T15:42:18.081Z,11.88
2024-01-29T15:44:45.439Z,12.98
2024-01-29T15:47:12.828Z,10.70
2024-01-29T15:49:41.287Z,17.63
2024-01-29T15:52:08.876Z,13.35
2024-01-29T15:54:36.847Z,12.70
2024-01-29T15:57:07.903Z,12.43
2024-01-29T15:59:35.530Z,11.90
2024-01-29T16:02:09.984Z,11.95
2024-01-29T16:04:40.054Z,13.07
2024-01-29T16:07:07.884Z,14.45
2024-01-29T16:09:35.312Z,13.80
2024-01-29T16:12:02.770Z,15.80
2024-01-29T16:14:30.502Z,12.90
2024-01-29T16:17:00.033Z,11.80
2024-01-29T16:19:29.948Z,16.13
2024-01-29T16:21:58.922Z,11.63
2024-01-29T16:24:26.234Z,15.68
2024-01-29T16:26:53.818Z,17.77
2024-01-29T16:29:21.050Z,14.43
2024-01-29T16:31:54.317Z,15.35
2024-01-29T16:34:22.309Z,14.90
2024-01-29T16:36:50.068Z,15.60
2024-01-29T16:39:17.344Z,12.40
2024-01-29T16:41:44.630Z,12.80
2024-01-29T16:44:12.230Z,13.63
2024-01-29T16:46:45.529Z,16.92
2024-01-29T16:49:16.423Z,17.40
2024-01-29T16:51:43.875Z,19.30
2024-01-29T16:54:11.394Z,15.98
2024-01-29T16:56:44.139Z,17.10
2024-01-29T16:59:11.798Z,18.25
2024-01-29T17:01:40.000Z,17.77
2024-01-29T17:04:07.804Z,18.02
2024-01-29T17:06:35.680Z,13.95
2024-01-29T17:09:02.996Z,12.90
2024-01-29T17:11:30.816Z,16.30
2024-01-29T17:14:01.365Z,16.70
2024-01-29T17:16:34.112Z,16.52
2024-01-29T17:19:09.280Z,13.77
2024-01-29T17:22:10.730Z,16.50
2024-01-29T17:24:39.230Z,13.38
2024-01-29T17:30:45.605Z,27.08
2024-01-29T17:33:21.779Z,18.05
2024-01-29T17:35:59.192Z,16.08
2024-01-29T17:38:29.882Z,14.15
2024-01-29T17:40:59.982Z,15.73
2024-01-29T17:43:31.812Z,14.63
2024-01-29T17:46:09.485Z,15.35
2024-01-29T17:48:37.229Z,13.75
2024-01-29T17:51:05.290Z,15.40
2024-01-29T17:53:38.468Z,14.43
2024-01-29T17:56:06.595Z,14.70
2024-01-29T17:58:33.949Z,15.05
2024-01-29T18:01:30.808Z,13.40
2024-01-29T18:04:03.211Z,15.77
2024-01-29T18:10:11.624Z,16.98
2024-01-29T18:12:41.991Z,16.92
2024-01-29T18:15:09.541Z,16.75
2024-01-29T18:17:43.424Z,15.52
2024-01-29T18:20:14.577Z,20.60
2024-01-29T18:22:46.326Z,16.52
2024-01-29T18:25:20.713Z,16.15
2024-01-29T18:27:50.176Z,17.27
2024-01-29T18:36:55.148Z,15.48
2024-01-29T18:38:11.391Z,16.27
2024-01-29T18:40:39.626Z,16.95
2024-01-29T18:43:07.570Z,19.48
2024-01-29T18:45:39.626Z,17.10
2024-01-29T18:48:18.771Z,15.50
2024-01-29T18:50:49.385Z,20.42
2024-01-29T18:57:04.498Z,16.80
2024-01-29T18:59:32.812Z,18.95
2024-01-29T19:02:00.287Z,18.67
2024-01-29T19:05:23.826Z,17.77
2024-01-29T19:07:53.373Z,18.67
2024-01-29T19:10:20.748Z,17.90
2024-01-29T19:12:48.156Z,17.52
2024-01-29T19:15:15.425Z,15.93
2024-01-29T19:17:45.204Z,16.67
2024-01-29T19:20:12.741Z,16.60
2024-01-29T19:22:40.095Z,18.55
2024-01-29T19:25:12.065Z,14.90
2024-01-29T19:28:11.850Z,17.42
2024-01-29T19:30:39.812Z,14.25
2024-01-29T19:33:08.187Z,13.52
2024-01-29T19:35:38.818Z,14.23
2024-01-29T19:38:09.268Z,16.25
2024-01-29T19:43:06.391Z,12.43
2024-01-29T19:45:34.936Z,13.70
2024-01-29T19:48:02.505Z,18.73
2024-01-29T19:50:32.138Z,18.05
2024-01-29T19:52:59.568Z,16.55
2024-01-29T19:55:26.689Z,14.95
2024-01-29T19:57:56.920Z,14.65
2024-01-29T20:00:27.051Z,14.38
2024-01-29T20:05:23.021Z,14.35
2024-01-29T20:07:50.434Z,13.88
2024-01-29T20:10:18.425Z,15.38
2024-01-29T20:12:51.533Z,13.35
2024-01-29T20:15:19.616Z,12.93
2024-01-29T20:17:47.223Z,13.57
2024-01-29T20:20:14.828Z,13.93
2024-01-29T20:22:42.406Z,12.93
2024-01-29T20:27:51.312Z,13.25
2024-01-29T20:30:22.031Z,13.50
2024-01-29T20:32:51.793Z,13.13
2024-01-29T20:35:24.627Z,15.45
2024-01-29T20:37:53.396Z,18.45
2024-01-29T20:40:21.653Z,13.63
2024-01-29T20:42:48.947Z,10.95
2024-01-29T20:45:16.443Z,13.45
2024-01-29T20:47:44.149Z,15.55
2024-01-29T20:50:11.501Z,12.55
2024-01-29T20:52:38.808Z,11.75
2024-01-29T20:55:14.099Z,13.00
2024-01-29T20:57:44.870Z,11.52
2024-01-29T21:00:19.108Z,13.15
2024-01-29T21:03:02.179Z,11.80
2024-01-29T21:05:31.852Z,10.50
2024-01-29T21:08:04.001Z,11.60
2024-01-29T21:10:31.302Z,13.35
2024-01-29T21:13:01.384Z,13.98
2024-01-29T21:15:31.442Z,13.10
2024-01-29T21:18:00.928Z,12.40
2024-01-29T21:20:28.886Z,11.73
2024-01-29T21:22:55.989Z,13.20
2024-01-29T21:25:23.387Z,14.07
2024-01-29T21:27:50.671Z,12.38
2024-01-29T21:30:23.481Z,12.60
2024-01-29T21:32:50.766Z,11.48
2024-01-29T21:35:18.240Z,11.30
2024-01-29T21:37:45.364Z,12.13
2024-01-29T21:40:12.736Z,14.95
2024-01-29T21:42:39.918Z,10.93
2024-01-29T21:45:08.732Z,12.90
2024-01-29T21:47:35.823Z,10.73
2024-01-29T21:50:04.933Z,11.75
2024-01-29T21:52:32.221Z,12.00
2024-01-29T21:55:06.140Z,10.95
2024-01-29T21:57:37.101Z,12.68
2024-01-29T22:00:06.101Z,12.77
2024-01-29T22:02:36.467Z,12.20
2024-01-29T22:05:04.017Z,11.95
2024-01-29T22:07:31.336Z,13.77
2024-01-29T22:09:59.176Z,10.77
2024-01-29T22:12:27.932Z,13.23
2024-01-29T22:14:55.132Z,13.00
2024-01-29T22:17:22.385Z,13.90
2024-01-29T22:19:50.063Z,13.73
2024-01-29T22:22:17.356Z,14.57
2024-01-29T22:24:45.077Z,13.70
2024-01-29T22:27:12.156Z,18.50
2024-01-29T22:29:40.927Z,11.35
2024-01-29T22:32:08.067Z,16.02
2024-01-29T22:34:35.286Z,12.35
2024-01-29T22:37:02.583Z,17.77
2024-01-29T22:39:29.851Z,14.60
2024-01-29T22:41:57.088Z,16.00
2024-01-29T22:44:24.482Z,17.23
2024-01-29T22:46:51.597Z,14.73
2024-01-29T22:49:19.318Z,12.23
2024-01-29T22:51:46.721Z,14.75
2024-01-29T22:54:14.057Z,12.93
2024-01-29T22:56:41.555Z,18.67
2024-01-29T22:59:09.295Z,12.98
2024-01-29T23:01:36.478Z,15.52
2024-01-29T23:04:03.813Z,11.20
2024-01-29T23:06:31.038Z,14.32
2024-01-29T23:08:58.166Z,12.48
2024-01-29T23:11:25.332Z,15.65
2024-01-29T23:13:52.490Z,13.55
2024-01-29T23:16:19.858Z,14.82
2024-01-29T23:18:48.417Z,11.75
2024-01-29T23:21:15.644Z,14.73
2024-01-29T23:23:43.198Z,20.08
2024-01-29T23:26:10.356Z,14.05
2024-01-29T23:28:37.858Z,12.98
2024-01-29T23:31:05.137Z,15.88
2024-01-29T23:33:32.411Z,15.57
2024-01-29T23:35:59.668Z,15.15
2024-01-29T23:38:26.748Z,13.32
2024-01-29T23:40:53.841Z,13.88
2024-01-29T23:43:21.096Z,15.45
2024-01-29T23:45:48.399Z,14.48
2024-01-29T23:48:15.734Z,13.82
2024-01-29T23:50:43.125Z,14.15
2024-01-29T23:53:10.264Z,13.35
2024-01-29T23:55:37.485Z,11.68
2024-01-29T23:58:07.924Z,14.43
